sensor_id;sensor_type;location;lat;lon;timestamp;pressure;altitude;pressure_sealevel;temperature;humidity
10988;BME280;5547;42.672;23.230;2023-05-01T00:01:29;93262.78;;;6.85;100.00
10988;BME280;5547;42.672;23.230;2023-05-01T00:04:31;93242.38;;;6.86;100.00
10988;BME280;5547;42.672;23.230;2023-05-01T00:07:32;93219.38;;;6.86;100.00
10988;BME280;5547;42.672;23.230;2023-05-01T00:10:34;93249.56;;;6.89;100.00
10988;BME280;5547;42.672;23.230;2023-05-01T00:13:35;93263.56;;;6.75;100.00
10988;BME280;5547;42.672;23.230;2023-05-01T00:16:36;93266.59;;;6.63;100.00
10988;BME280;5547;42.672;23.230;2023-05-01T00:19:37;93275.66;;;6.58;100.00
10988;BME280;5547;42.672;23.230;2023-05-01T00:22:37;93275.28;;;6.45;100.00
10988;BME280;5547;42.672;23.230;2023-05-01T00:25:38;93253.78;;;6.18;100.00
10988;BME280;5547;42.672;23.230;2023-05-01T00:28:38;93214.50;;;5.84;100.00
10988;BME280;5547;42.672;23.230;2023-05-01T00:31:39;93265.88;;;6.19;100.00
10988;BME280;5547;42.672;23.230;2023-05-01T00:34:41;93259.81;;;6.04;100.00
10988;BME280;5547;42.672;23.230;2023-05-01T00:37:42;93229.19;;;5.82;100.00
10988;BME280;5547;42.672;23.230;2023-05-01T00:40:43;93269.22;;;5.98;100.00
10988;BME280;5547;42.672;23.230;2023-05-01T00:43:44;93257.09;;;5.86;100.00
10988;BME280;5547;42.672;23.230;2023-05-01T00:46:44;93255.66;;;5.96;100.00
10988;BME280;5547;42.672;23.230;2023-05-01T00:49:45;93240.16;;;5.80;100.00
10988;BME280;5547;42.672;23.230;2023-05-01T00:52:46;93275.63;;;5.97;100.00
10988;BME280;5547;42.672;23.230;2023-05-01T00:55:47;93215.59;;;5.51;100.00
10988;BME280;5547;42.672;23.230;2023-05-01T00:58:49;93279.34;;;5.89;100.00
10988;BME280;5547;42.672;23.230;2023-05-01T01:01:53;93281.25;;;5.85;100.00
10988;BME280;5547;42.672;23.230;2023-05-01T01:04:54;93259.69;;;5.58;100.00
10988;BME280;5547;42.672;23.230;2023-05-01T01:08:07;93297.06;;;5.78;100.00
10988;BME280;5547;42.672;23.230;2023-05-01T01:11:20;93292.53;;;5.71;100.00
10988;BME280;5547;42.672;23.230;2023-05-01T01:14:35;93195.44;;;4.96;100.00
10988;BME280;5547;42.672;23.230;2023-05-01T01:17:53;93281.19;;;5.60;100.00
10988;BME280;5547;42.672;23.230;2023-05-01T01:35:02;93298.97;;;5.81;100.00
10988;BME280;5547;42.672;23.230;2023-05-01T01:38:08;93298.22;;;5.87;100.00
10988;BME280;5547;42.672;23.230;2023-05-01T01:41:17;93288.06;;;5.89;100.00
10988;BME280;5547;42.672;23.230;2023-05-01T01:44:29;93310.72;;;5.94;100.00
10988;BME280;5547;42.672;23.230;2023-05-01T01:47:33;93297.91;;;6.07;100.00
10988;BME280;5547;42.672;23.230;2023-05-01T01:50:36;93270.25;;;5.65;100.00
10988;BME280;5547;42.672;23.230;2023-05-01T01:53:40;93301.59;;;5.81;100.00
10988;BME280;5547;42.672;23.230;2023-05-01T01:56:44;93272.53;;;5.59;100.00
10988;BME280;5547;42.672;23.230;2023-05-01T01:59:47;93288.00;;;5.75;100.00
10988;BME280;5547;42.672;23.230;2023-05-01T02:02:49;93292.91;;;5.73;100.00
10988;BME280;5547;42.672;23.230;2023-05-01T02:05:53;93298.94;;;5.77;100.00
10988;BME280;5547;42.672;23.230;2023-05-01T02:08:55;93287.66;;;5.87;100.00
10988;BME280;5547;42.672;23.230;2023-05-01T02:11:57;93291.09;;;6.02;100.00
10988;BME280;5547;42.672;23.230;2023-05-01T02:14:59;93269.91;;;5.70;100.00
10988;BME280;5547;42.672;23.230;2023-05-01T02:18:03;93257.03;;;5.47;100.00
10988;BME280;5547;42.672;23.230;2023-05-01T02:21:04;93294.75;;;5.55;100.00
10988;BME280;5547;42.672;23.230;2023-05-01T02:24:06;93289.06;;;5.45;100.00
10988;BME280;5547;42.672;23.230;2023-05-01T02:27:11;93287.16;;;5.39;100.00
10988;BME280;5547;42.672;23.230;2023-05-01T02:30:12;93267.84;;;5.24;100.00
10988;BME280;5547;42.672;23.230;2023-05-01T02:33:13;93274.63;;;5.21;100.00
10988;BME280;5547;42.672;23.230;2023-05-01T02:36:14;93252.00;;;5.10;100.00
10988;BME280;5547;42.672;23.230;2023-05-01T02:39:14;93255.06;;;5.22;100.00
10988;BME280;5547;42.672;23.230;2023-05-01T02:42:15;93267.16;;;5.34;100.00
10988;BME280;5547;42.672;23.230;2023-05-01T02:45:18;93284.50;;;5.35;100.00
10988;BME280;5547;42.672;23.230;2023-05-01T02:48:22;93276.56;;;5.24;100.00
10988;BME280;5547;42.672;23.230;2023-05-01T02:51:25;93289.78;;;5.42;100.00
10988;BME280;5547;42.672;23.230;2023-05-01T02:54:26;93242.50;;;4.94;100.00
10988;BME280;5547;42.672;23.230;2023-05-01T02:57:27;93251.94;;;4.95;100.00
10988;BME280;5547;42.672;23.230;2023-05-01T03:00:28;93291.97;;;5.22;100.00
10988;BME280;5547;42.672;23.230;2023-05-01T03:03:29;93282.16;;;5.19;100.00
10988;BME280;5547;42.672;23.230;2023-05-01T03:06:29;93262.16;;;5.11;100.00
10988;BME280;5547;42.672;23.230;2023-05-01T03:09:30;93263.63;;;5.01;100.00
10988;BME280;5547;42.672;23.230;2023-05-01T03:12:31;93248.50;;;4.88;100.00
10988;BME280;5547;42.672;23.230;2023-05-01T03:15:31;93284.75;;;5.12;100.00
10988;BME280;5547;42.672;23.230;2023-05-01T03:18:31;93299.84;;;5.12;100.00
10988;BME280;5547;42.672;23.230;2023-05-01T03:21:32;93288.91;;;5.06;100.00
10988;BME280;5547;42.672;23.230;2023-05-01T03:24:33;93271.13;;;4.92;100.00
10988;BME280;5547;42.672;23.230;2023-05-01T03:27:33;93274.50;;;4.96;100.00
10988;BME280;5547;42.672;23.230;2023-05-01T03:30:33;93161.19;;;4.16;100.00
10988;BME280;5547;42.672;23.230;2023-05-01T03:33:35;93288.94;;;5.13;100.00
10988;BME280;5547;42.672;23.230;2023-05-01T03:36:36;93249.63;;;4.83;100.00
10988;BME280;5547;42.672;23.230;2023-05-01T03:39:36;93286.63;;;5.04;100.00
10988;BME280;5547;42.672;23.230;2023-05-01T03:42:36;93300.28;;;5.24;100.00
10988;BME280;5547;42.672;23.230;2023-05-01T03:45:37;93302.53;;;5.26;100.00
10988;BME280;5547;42.672;23.230;2023-05-01T03:48:37;93313.09;;;5.33;100.00
10988;BME280;5547;42.672;23.230;2023-05-01T03:51:38;93296.13;;;5.20;100.00
10988;BME280;5547;42.672;23.230;2023-05-01T03:54:38;93293.84;;;5.22;100.00
10988;BME280;5547;42.672;23.230;2023-05-01T03:57:39;93326.06;;;5.67;100.00
10988;BME280;5547;42.672;23.230;2023-05-01T04:00:39;93329.06;;;5.65;100.00
10988;BME280;5547;42.672;23.230;2023-05-01T04:03:40;93305.66;;;5.53;100.00
10988;BME280;5547;42.672;23.230;2023-05-01T04:06:41;93327.53;;;5.61;100.00
10988;BME280;5547;42.672;23.230;2023-05-01T04:09:41;93342.66;;;5.75;100.00
10988;BME280;5547;42.672;23.230;2023-05-01T04:12:42;93343.88;;;5.92;100.00
10988;BME280;5547;42.672;23.230;2023-05-01T04:15:44;93330.72;;;5.99;100.00
10988;BME280;5547;42.672;23.230;2023-05-01T04:18:45;93349.97;;;6.21;100.00
10988;BME280;5547;42.672;23.230;2023-05-01T04:21:45;93350.00;;;6.39;100.00
10988;BME280;5547;42.672;23.230;2023-05-01T04:24:46;93354.19;;;6.58;100.00
10988;BME280;5547;42.672;23.230;2023-05-01T04:27:46;93354.91;;;6.90;100.00
10988;BME280;5547;42.672;23.230;2023-05-01T04:30:47;93354.91;;;7.15;100.00
10988;BME280;5547;42.672;23.230;2023-05-01T04:33:47;93348.03;;;7.43;100.00
10988;BME280;5547;42.672;23.230;2023-05-01T04:36:48;93348.28;;;7.77;100.00
10988;BME280;5547;42.672;23.230;2023-05-01T04:39:48;93354.19;;;8.10;100.00
10988;BME280;5547;42.672;23.230;2023-05-01T04:42:50;93331.41;;;8.27;100.00
10988;BME280;5547;42.672;23.230;2023-05-01T04:45:50;93351.06;;;8.86;100.00
10988;BME280;5547;42.672;23.230;2023-05-01T04:48:51;93346.22;;;9.22;100.00
10988;BME280;5547;42.672;23.230;2023-05-01T04:51:51;93359.28;;;9.78;100.00
10988;BME280;5547;42.672;23.230;2023-05-01T04:54:51;93319.06;;;9.76;100.00
10988;BME280;5547;42.672;23.230;2023-05-01T04:57:52;93275.06;;;9.75;100.00
10988;BME280;5547;42.672;23.230;2023-05-01T05:00:52;93379.09;;;10.62;100.00
10988;BME280;5547;42.672;23.230;2023-05-01T05:03:53;93378.28;;;10.65;100.00
10988;BME280;5547;42.672;23.230;2023-05-01T05:06:53;93368.59;;;10.78;100.00
10988;BME280;5547;42.672;23.230;2023-05-01T05:09:53;93344.25;;;10.80;100.00
10988;BME280;5547;42.672;23.230;2023-05-01T05:12:54;93387.78;;;10.93;100.00
10988;BME280;5547;42.672;23.230;2023-05-01T05:15:54;93382.94;;;10.84;100.00
10988;BME280;5547;42.672;23.230;2023-05-01T05:18:55;93371.41;;;10.67;100.00
10988;BME280;5547;42.672;23.230;2023-05-01T05:21:56;93397.03;;;11.08;100.00
10988;BME280;5547;42.672;23.230;2023-05-01T05:24:57;93400.09;;;11.07;100.00
10988;BME280;5547;42.672;23.230;2023-05-01T05:28:03;93404.66;;;11.53;100.00
10988;BME280;5547;42.672;23.230;2023-05-01T05:31:03;93408.41;;;11.56;100.00
10988;BME280;5547;42.672;23.230;2023-05-01T05:34:04;93415.69;;;11.52;100.00
10988;BME280;5547;42.672;23.230;2023-05-01T05:37:04;93392.63;;;11.22;100.00
10988;BME280;5547;42.672;23.230;2023-05-01T05:40:05;93397.25;;;11.18;100.00
10988;BME280;5547;42.672;23.230;2023-05-01T05:43:06;93409.56;;;11.31;100.00
10988;BME280;5547;42.672;23.230;2023-05-01T05:46:06;93395.34;;;11.18;100.00
10988;BME280;5547;42.672;23.230;2023-05-01T05:49:06;93415.97;;;11.57;100.00
10988;BME280;5547;42.672;23.230;2023-05-01T05:52:07;93393.81;;;11.41;100.00
10988;BME280;5547;42.672;23.230;2023-05-01T05:55:07;93412.81;;;11.86;100.00
10988;BME280;5547;42.672;23.230;2023-05-01T05:58:08;93428.66;;;11.73;100.00
10988;BME280;5547;42.672;23.230;2023-05-01T06:01:08;93401.69;;;11.91;100.00
10988;BME280;5547;42.672;23.230;2023-05-01T06:04:10;93427.94;;;12.33;100.00
10988;BME280;5547;42.672;23.230;2023-05-01T06:07:13;93435.94;;;11.93;100.00
10988;BME280;5547;42.672;23.230;2023-05-01T06:10:13;93325.53;;;11.30;100.00
10988;BME280;5547;42.672;23.230;2023-05-01T06:13:14;93437.38;;;12.37;100.00
10988;BME280;5547;42.672;23.230;2023-05-01T06:16:14;93424.47;;;12.16;100.00
10988;BME280;5547;42.672;23.230;2023-05-01T06:19:15;93401.28;;;12.13;100.00
10988;BME280;5547;42.672;23.230;2023-05-01T06:22:15;93408.75;;;12.02;100.00
10988;BME280;5547;42.672;23.230;2023-05-01T06:25:15;93442.84;;;12.10;100.00
10988;BME280;5547;42.672;23.230;2023-05-01T06:28:16;93439.88;;;11.85;100.00
10988;BME280;5547;42.672;23.230;2023-05-01T06:31:16;93400.00;;;12.01;100.00
10988;BME280;5547;42.672;23.230;2023-05-01T06:34:18;93436.47;;;12.24;100.00
10988;BME280;5547;42.672;23.230;2023-05-01T06:37:18;93403.03;;;11.80;100.00
10988;BME280;5547;42.672;23.230;2023-05-01T06:40:19;93318.69;;;11.53;100.00
10988;BME280;5547;42.672;23.230;2023-05-01T06:43:19;93410.56;;;12.45;100.00
10988;BME280;5547;42.672;23.230;2023-05-01T06:46:20;93436.06;;;12.46;100.00
10988;BME280;5547;42.672;23.230;2023-05-01T06:49:20;93443.03;;;12.59;100.00
10988;BME280;5547;42.672;23.230;2023-05-01T06:52:20;93457.47;;;12.42;100.00
10988;BME280;5547;42.672;23.230;2023-05-01T06:55:21;93449.31;;;12.49;100.00
10988;BME280;5547;42.672;23.230;2023-05-01T06:58:21;93451.53;;;12.71;100.00
10988;BME280;5547;42.672;23.230;2023-05-01T07:01:22;93462.06;;;12.22;100.00
10988;BME280;5547;42.672;23.230;2023-05-01T07:04:22;93455.41;;;12.86;100.00
10988;BME280;5547;42.672;23.230;2023-05-01T07:07:23;93446.00;;;12.61;100.00
10988;BME280;5547;42.672;23.230;2023-05-01T07:10:23;93460.47;;;12.64;100.00
10988;BME280;5547;42.672;23.230;2023-05-01T07:13:24;93464.94;;;12.87;100.00
10988;BME280;5547;42.672;23.230;2023-05-01T07:16:24;93460.25;;;13.28;100.00
10988;BME280;5547;42.672;23.230;2023-05-01T07:19:24;93465.13;;;12.96;100.00
10988;BME280;5547;42.672;23.230;2023-05-01T07:22:25;93457.75;;;12.84;100.00
10988;BME280;5547;42.672;23.230;2023-05-01T07:25:25;93463.28;;;13.10;100.00
10988;BME280;5547;42.672;23.230;2023-05-01T07:28:26;93470.41;;;13.33;100.00
10988;BME280;5547;42.672;23.230;2023-05-01T07:31:26;93453.72;;;13.61;100.00
10988;BME280;5547;42.672;23.230;2023-05-01T07:34:27;93469.81;;;13.74;100.00
10988;BME280;5547;42.672;23.230;2023-05-01T07:37:27;93451.69;;;14.11;100.00
10988;BME280;5547;42.672;23.230;2023-05-01T07:40:27;93448.88;;;14.31;100.00
10988;BME280;5547;42.672;23.230;2023-05-01T07:43:28;93474.09;;;14.30;86.49
10988;BME280;5547;42.672;23.230;2023-05-01T07:46:28;93473.75;;;14.15;86.14
10988;BME280;5547;42.672;23.230;2023-05-01T07:49:34;93454.88;;;14.35;91.06
10988;BME280;5547;42.672;23.230;2023-05-01T07:52:34;93462.84;;;14.52;87.66
10988;BME280;5547;42.672;23.230;2023-05-01T07:55:35;93469.94;;;14.58;81.23
10988;BME280;5547;42.672;23.230;2023-05-01T07:58:37;93455.09;;;14.41;84.56
10988;BME280;5547;42.672;23.230;2023-05-01T08:01:37;93474.38;;;14.90;81.32
10988;BME280;5547;42.672;23.230;2023-05-01T08:04:38;93473.59;;;15.16;84.54
10988;BME280;5547;42.672;23.230;2023-05-01T08:07:38;93443.75;;;15.04;79.93
10988;BME280;5547;42.672;23.230;2023-05-01T08:10:39;93452.06;;;14.81;79.42
10988;BME280;5547;42.672;23.230;2023-05-01T08:13:39;93474.50;;;15.00;79.02
10988;BME280;5547;42.672;23.230;2023-05-01T08:16:40;93476.59;;;14.66;83.73
10988;BME280;5547;42.672;23.230;2023-05-01T08:19:40;93458.47;;;14.58;81.17
10988;BME280;5547;42.672;23.230;2023-05-01T08:22:41;93431.09;;;14.92;79.42
10988;BME280;5547;42.672;23.230;2023-05-01T08:25:41;93476.91;;;15.45;71.77
10988;BME280;5547;42.672;23.230;2023-05-01T08:28:42;93460.72;;;15.49;68.82
10988;BME280;5547;42.672;23.230;2023-05-01T08:31:43;93478.09;;;15.44;70.83
10988;BME280;5547;42.672;23.230;2023-05-01T08:34:44;93485.19;;;15.99;70.49
10988;BME280;5547;42.672;23.230;2023-05-01T08:37:44;93480.00;;;15.57;68.63
10988;BME280;5547;42.672;23.230;2023-05-01T08:40:50;93472.97;;;15.37;70.93
10988;BME280;5547;42.672;23.230;2023-05-01T08:43:52;93456.66;;;15.31;70.72
10988;BME280;5547;42.672;23.230;2023-05-01T08:47:09;93476.13;;;15.83;65.87
10988;BME280;5547;42.672;23.230;2023-05-01T08:50:12;93443.91;;;15.48;70.01
10988;BME280;5547;42.672;23.230;2023-05-01T08:53:17;93447.63;;;15.77;66.94
10988;BME280;5547;42.672;23.230;2023-05-01T08:56:19;93467.69;;;15.72;67.78
10988;BME280;5547;42.672;23.230;2023-05-01T08:59:23;93400.81;;;15.43;67.59
10988;BME280;5547;42.672;23.230;2023-05-01T09:02:25;93477.81;;;16.47;63.06
10988;BME280;5547;42.672;23.230;2023-05-01T09:05:26;93446.41;;;15.78;68.46
10988;BME280;5547;42.672;23.230;2023-05-01T09:08:27;93459.84;;;16.34;64.02
10988;BME280;5547;42.672;23.230;2023-05-01T09:11:27;93443.38;;;16.76;67.88
10988;BME280;5547;42.672;23.230;2023-05-01T09:14:30;93442.78;;;17.04;61.31
10988;BME280;5547;42.672;23.230;2023-05-01T09:17:30;93456.28;;;16.37;60.96
10988;BME280;5547;42.672;23.230;2023-05-01T09:20:31;93402.94;;;16.49;61.45
10988;BME280;5547;42.672;23.230;2023-05-01T09:23:32;93466.31;;;16.68;62.77
10988;BME280;5547;42.672;23.230;2023-05-01T09:26:38;93468.84;;;17.25;62.02
10988;BME280;5547;42.672;23.230;2023-05-01T09:32:41;93459.97;;;17.65;58.21
10988;BME280;5547;42.672;23.230;2023-05-01T09:35:53;93439.09;;;16.79;58.96
10988;BME280;5547;42.672;23.230;2023-05-01T09:38:54;93472.72;;;16.93;57.40
10988;BME280;5547;42.672;23.230;2023-05-01T09:41:54;93468.47;;;17.45;56.51
10988;BME280;5547;42.672;23.230;2023-05-01T09:44:55;93444.19;;;17.17;55.76
10988;BME280;5547;42.672;23.230;2023-05-01T09:48:09;93474.44;;;16.77;57.29
10988;BME280;5547;42.672;23.230;2023-05-01T09:51:30;93438.75;;;16.46;54.94
10988;BME280;5547;42.672;23.230;2023-05-01T09:54:30;93464.72;;;17.02;53.94
10988;BME280;5547;42.672;23.230;2023-05-01T09:57:34;93430.25;;;16.78;52.33
10988;BME280;5547;42.672;23.230;2023-05-01T10:00:46;93446.03;;;17.39;53.39
10988;BME280;5547;42.672;23.230;2023-05-01T10:03:52;93454.47;;;17.78;52.39
10988;BME280;5547;42.672;23.230;2023-05-01T10:06:53;93456.53;;;17.64;54.85
10988;BME280;5547;42.672;23.230;2023-05-01T10:09:53;93457.88;;;17.60;51.48
10988;BME280;5547;42.672;23.230;2023-05-01T10:12:54;93454.34;;;18.09;50.00
10988;BME280;5547;42.672;23.230;2023-05-01T10:15:55;93453.47;;;18.31;51.04
10988;BME280;5547;42.672;23.230;2023-05-01T10:18:56;93451.81;;;17.96;53.37
10988;BME280;5547;42.672;23.230;2023-05-01T10:21:57;93420.59;;;17.21;56.12
10988;BME280;5547;42.672;23.230;2023-05-01T10:24:58;93460.28;;;17.67;52.81
10988;BME280;5547;42.672;23.230;2023-05-01T10:28:02;93427.75;;;17.15;54.70
10988;BME280;5547;42.672;23.230;2023-05-01T10:31:04;93410.47;;;17.35;53.40
10988;BME280;5547;42.672;23.230;2023-05-01T10:34:05;93422.78;;;16.73;54.60
10988;BME280;5547;42.672;23.230;2023-05-01T10:37:12;93447.38;;;16.94;54.12
10988;BME280;5547;42.672;23.230;2023-05-01T10:43:39;93448.97;;;17.91;51.75
10988;BME280;5547;42.672;23.230;2023-05-01T10:46:40;93451.66;;;17.91;51.61
10988;BME280;5547;42.672;23.230;2023-05-01T10:50:03;93440.34;;;17.37;56.72
10988;BME280;5547;42.672;23.230;2023-05-01T10:59:24;93458.69;;;17.29;56.39
10988;BME280;5547;42.672;23.230;2023-05-01T11:02:25;93428.16;;;16.73;55.92
10988;BME280;5547;42.672;23.230;2023-05-01T11:09:41;93448.28;;;16.25;58.06
10988;BME280;5547;42.672;23.230;2023-05-01T11:15:45;93452.44;;;16.92;55.21
10988;BME280;5547;42.672;23.230;2023-05-01T11:18:46;93390.78;;;16.88;54.32
10988;BME280;5547;42.672;23.230;2023-05-01T11:21:46;93444.91;;;17.77;50.85
10988;BME280;5547;42.672;23.230;2023-05-01T11:24:47;93459.16;;;17.87;51.55
10988;BME280;5547;42.672;23.230;2023-05-01T11:27:54;93421.00;;;17.88;51.48
10988;BME280;5547;42.672;23.230;2023-05-01T11:30:54;93448.22;;;18.27;51.69
10988;BME280;5547;42.672;23.230;2023-05-01T11:33:56;93423.78;;;17.38;51.94
10988;BME280;5547;42.672;23.230;2023-05-01T11:36:57;93426.25;;;17.23;52.58
10988;BME280;5547;42.672;23.230;2023-05-01T11:39:57;93447.78;;;18.01;51.73
10988;BME280;5547;42.672;23.230;2023-05-01T11:43:05;93439.41;;;17.90;52.20
10988;BME280;5547;42.672;23.230;2023-05-01T11:46:06;93441.34;;;18.44;51.91
10988;BME280;5547;42.672;23.230;2023-05-01T11:49:06;93426.25;;;18.29;50.08
10988;BME280;5547;42.672;23.230;2023-05-01T11:52:07;93401.81;;;18.51;51.79
10988;BME280;5547;42.672;23.230;2023-05-01T11:55:08;93435.06;;;18.38;51.79
10988;BME280;5547;42.672;23.230;2023-05-01T11:58:09;93435.00;;;18.66;52.90
10988;BME280;5547;42.672;23.230;2023-05-01T12:01:10;93420.91;;;18.71;52.16
10988;BME280;5547;42.672;23.230;2023-05-01T12:04:21;93424.47;;;18.25;52.38
10988;BME280;5547;42.672;23.230;2023-05-01T12:07:22;93440.88;;;18.37;50.65
10988;BME280;5547;42.672;23.230;2023-05-01T12:10:22;93408.13;;;18.38;50.17
10988;BME280;5547;42.672;23.230;2023-05-01T12:13:24;93439.50;;;18.51;50.60
10988;BME280;5547;42.672;23.230;2023-05-01T12:16:26;93442.34;;;18.56;53.95
10988;BME280;5547;42.672;23.230;2023-05-01T12:19:28;93390.75;;;18.58;53.63
10988;BME280;5547;42.672;23.230;2023-05-01T12:22:28;93408.41;;;18.50;50.25
10988;BME280;5547;42.672;23.230;2023-05-01T12:25:30;93433.19;;;18.81;49.56
10988;BME280;5547;42.672;23.230;2023-05-01T12:28:31;93423.38;;;19.36;48.88
10988;BME280;5547;42.672;23.230;2023-05-01T12:31:32;93380.06;;;19.39;49.00
10988;BME280;5547;42.672;23.230;2023-05-01T12:34:33;93437.47;;;19.06;50.10
10988;BME280;5547;42.672;23.230;2023-05-01T12:37:33;93442.31;;;18.84;48.05
10988;BME280;5547;42.672;23.230;2023-05-01T12:40:34;93432.81;;;18.18;49.70
10988;BME280;5547;42.672;23.230;2023-05-01T12:43:35;93391.19;;;18.56;48.67
10988;BME280;5547;42.672;23.230;2023-05-01T12:46:37;93436.06;;;19.20;47.31
10988;BME280;5547;42.672;23.230;2023-05-01T12:49:37;93398.25;;;18.44;47.13
10988;BME280;5547;42.672;23.230;2023-05-01T12:52:39;93432.97;;;18.15;46.77
10988;BME280;5547;42.672;23.230;2023-05-01T12:55:47;93431.94;;;18.31;48.52
10988;BME280;5547;42.672;23.230;2023-05-01T12:58:49;93387.34;;;17.56;46.81
10988;BME280;5547;42.672;23.230;2023-05-01T13:02:03;93417.03;;;17.25;47.80
10988;BME280;5547;42.672;23.230;2023-05-01T13:05:09;93441.81;;;17.29;49.35
10988;BME280;5547;42.672;23.230;2023-05-01T13:08:10;93437.38;;;16.72;49.09
10988;BME280;5547;42.672;23.230;2023-05-01T13:11:13;93434.91;;;16.56;50.70
10988;BME280;5547;42.672;23.230;2023-05-01T13:14:15;93439.41;;;16.59;50.31
10988;BME280;5547;42.672;23.230;2023-05-01T13:17:27;93423.63;;;16.70;50.43
10988;BME280;5547;42.672;23.230;2023-05-01T13:20:27;93415.03;;;17.16;49.83
10988;BME280;5547;42.672;23.230;2023-05-01T13:23:28;93445.38;;;17.84;47.15
10988;BME280;5547;42.672;23.230;2023-05-01T13:26:33;93453.78;;;18.05;47.04
10988;BME280;5547;42.672;23.230;2023-05-01T13:29:35;93460.22;;;17.49;47.85
10988;BME280;5547;42.672;23.230;2023-05-01T13:32:39;93425.16;;;16.71;50.21
10988;BME280;5547;42.672;23.230;2023-05-01T13:35:40;93451.66;;;16.60;51.48
10988;BME280;5547;42.672;23.230;2023-05-01T13:38:52;93405.25;;;16.06;53.32
10988;BME280;5547;42.672;23.230;2023-05-01T13:41:53;93460.88;;;16.15;53.12
10988;BME280;5547;42.672;23.230;2023-05-01T13:44:56;93461.47;;;16.32;52.98
10988;BME280;5547;42.672;23.230;2023-05-01T13:47:56;93441.28;;;15.83;57.43
10988;BME280;5547;42.672;23.230;2023-05-01T13:50:57;93461.22;;;15.82;59.30
10988;BME280;5547;42.672;23.230;2023-05-01T13:53:58;93462.09;;;15.79;59.94
10988;BME280;5547;42.672;23.230;2023-05-01T13:56:59;93370.44;;;15.11;59.55
10988;BME280;5547;42.672;23.230;2023-05-01T14:00:00;93461.66;;;15.68;59.23
10988;BME280;5547;42.672;23.230;2023-05-01T14:03:01;93448.38;;;15.64;59.58
10988;BME280;5547;42.672;23.230;2023-05-01T14:06:02;93441.94;;;15.62;59.34
10988;BME280;5547;42.672;23.230;2023-05-01T14:09:03;93447.84;;;15.57;58.51
10988;BME280;5547;42.672;23.230;2023-05-01T14:12:04;93443.03;;;15.51;59.44
10988;BME280;5547;42.672;23.230;2023-05-01T14:15:10;93458.00;;;15.62;57.72
10988;BME280;5547;42.672;23.230;2023-05-01T14:18:15;93467.22;;;15.86;57.95
10988;BME280;5547;42.672;23.230;2023-05-01T14:21:17;93469.69;;;15.68;59.64
10988;BME280;5547;42.672;23.230;2023-05-01T14:24:17;93463.63;;;16.02;58.01
10988;BME280;5547;42.672;23.230;2023-05-01T14:27:19;93448.88;;;16.95;55.02
10988;BME280;5547;42.672;23.230;2023-05-01T14:30:34;93464.22;;;17.35;53.01
10988;BME280;5547;42.672;23.230;2023-05-01T14:33:41;93447.81;;;17.42;56.44
10988;BME280;5547;42.672;23.230;2023-05-01T14:36:46;93462.00;;;17.33;54.40
10988;BME280;5547;42.672;23.230;2023-05-01T14:39:46;93465.06;;;17.63;52.38
10988;BME280;5547;42.672;23.230;2023-05-01T14:42:47;93449.00;;;17.32;54.25
10988;BME280;5547;42.672;23.230;2023-05-01T14:45:47;93453.81;;;17.55;54.73
10988;BME280;5547;42.672;23.230;2023-05-01T14:48:50;93451.91;;;17.74;55.25
10988;BME280;5547;42.672;23.230;2023-05-01T14:51:52;93446.47;;;17.37;52.67
10988;BME280;5547;42.672;23.230;2023-05-01T14:54:52;93450.91;;;17.22;53.36
10988;BME280;5547;42.672;23.230;2023-05-01T14:57:53;93442.28;;;16.96;54.64
10988;BME280;5547;42.672;23.230;2023-05-01T15:00:54;93451.44;;;16.98;54.33
10988;BME280;5547;42.672;23.230;2023-05-01T15:03:54;93448.38;;;16.65;53.32
10988;BME280;5547;42.672;23.230;2023-05-01T15:06:55;93446.16;;;16.64;54.86
10988;BME280;5547;42.672;23.230;2023-05-01T15:09:55;93438.50;;;16.84;53.02
10988;BME280;5547;42.672;23.230;2023-05-01T15:12:56;93457.50;;;16.90;52.17
10988;BME280;5547;42.672;23.230;2023-05-01T15:15:56;93463.22;;;17.01;54.22
10988;BME280;5547;42.672;23.230;2023-05-01T15:18:56;93456.06;;;17.07;52.21
10988;BME280;5547;42.672;23.230;2023-05-01T15:21:57;93460.06;;;17.02;52.11
10988;BME280;5547;42.672;23.230;2023-05-01T15:24:57;93458.44;;;17.05;52.57
10988;BME280;5547;42.672;23.230;2023-05-01T15:27:58;93456.13;;;16.63;53.42
10988;BME280;5547;42.672;23.230;2023-05-01T15:30:58;93418.78;;;16.25;54.63
10988;BME280;5547;42.672;23.230;2023-05-01T15:33:59;93465.72;;;16.20;54.65
10988;BME280;5547;42.672;23.230;2023-05-01T15:37:00;93441.03;;;16.12;56.83
10988;BME280;5547;42.672;23.230;2023-05-01T15:40:01;93436.44;;;16.13;56.79
10988;BME280;5547;42.672;23.230;2023-05-01T15:43:04;93400.88;;;16.00;55.43
10988;BME280;5547;42.672;23.230;2023-05-01T15:46:05;93467.13;;;16.78;53.56
10988;BME280;5547;42.672;23.230;2023-05-01T15:49:07;93432.88;;;16.16;55.45
10988;BME280;5547;42.672;23.230;2023-05-01T15:52:07;93449.16;;;16.44;55.65
10988;BME280;5547;42.672;23.230;2023-05-01T15:55:08;93446.84;;;16.55;56.58
10988;BME280;5547;42.672;23.230;2023-05-01T15:58:08;93415.31;;;16.24;54.75
10988;BME280;5547;42.672;23.230;2023-05-01T16:01:11;93445.78;;;17.06;54.16
10988;BME280;5547;42.672;23.230;2023-05-01T16:04:11;93448.00;;;16.76;55.05
10988;BME280;5547;42.672;23.230;2023-05-01T16:07:13;93432.63;;;16.76;54.04
10988;BME280;5547;42.672;23.230;2023-05-01T16:10:13;93451.00;;;16.78;53.70
10988;BME280;5547;42.672;23.230;2023-05-01T16:13:13;93459.41;;;16.36;53.80
10988;BME280;5547;42.672;23.230;2023-05-01T16:16:21;93441.25;;;16.18;54.59
10988;BME280;5547;42.672;23.230;2023-05-01T16:19:22;93452.69;;;15.96;55.29
10988;BME280;5547;42.672;23.230;2023-05-01T16:22:23;93453.84;;;16.08;55.02
10988;BME280;5547;42.672;23.230;2023-05-01T16:25:23;93452.66;;;15.74;55.64
10988;BME280;5547;42.672;23.230;2023-05-01T16:28:23;93416.25;;;15.39;57.24
10988;BME280;5547;42.672;23.230;2023-05-01T16:31:25;93454.97;;;15.38;57.83
10988;BME280;5547;42.672;23.230;2023-05-01T16:34:26;93453.38;;;15.15;59.80